This is the latest recevied weather packets stored in our database for station/object DK5GB. If no packets are shown the sender has not sent any weather packets the latest 10 day(s).
| Time | Temp. | Humidity | Pressure | Rain* | Wind** | Luminosity | Snow |
|---|---|---|---|---|---|---|---|
| 1777749918 | 17.22° C | 54% | 1020.5 hPa | 0 mm | - | - | - |
| 1777745116 | 21.11° C | 41% | 1020 hPa | 0 mm | - | - | - |
| 1777744516 | 21.67° C | 40% | 1019.8 hPa | 0 mm | - | - | - |
| 1777740317 | 23.89° C | 33% | 1020.2 hPa | 0 mm | - | - | - |
| 1777736116 | 25° C | 33% | 1021.1 hPa | 0 mm | - | - | - |
| 1777735517 | 25° C | 31% | 1021.3 hPa | 0 mm | - | - | - |
| 1777731317 | 25.56° C | 32% | 1022.4 hPa | 0 mm | - | - | - |
| 1777730716 | 25.56° C | 31% | 1022.5 hPa | 0 mm | - | - | - |
| 1777727116 | 25.56° C | 31% | 1023.4 hPa | 0 mm | - | - | - |
| 1777722916 | 24.44° C | 35% | 1024.2 hPa | 0 mm | - | - | - |
| 1777721116 | 24.44° C | 35% | 1024.8 hPa | 0 mm | - | - | - |
| 1777706116 | 17.78° C | 52% | 1026.6 hPa | 0 mm | - | - | - |
| 1777703147 | 13.33° C | 64% | 1026.6 hPa | 0 mm | - | - | - |
| 1777679717 | 8.33° C | 73% | 1027.9 hPa | 0 mm | - | - | - |
| 1777670738 | 12.78° C | 59% | 1028 hPa | 0 mm | - | - | - |
| 1777669557 | 13.33° C | 55% | 1028 hPa | 0 mm | - | - | - |
| 1777667717 | 15° C | 50% | 1027.9 hPa | 0 mm | - | - | - |
| 1777667117 | 15.56° C | 48% | 1027.9 hPa | 0 mm | - | - | - |
| 1777664136 | 17.78° C | 40% | 1027.6 hPa | 0 mm | - | - | - |
| 1777660518 | 20° C | 33% | 1027.3 hPa | 0 mm | - | - | - |
| 1777657517 | 21.11° C | 31% | 1026.6 hPa | 0 mm | - | - | - |
| 1777656316 | 21.67° C | 30% | 1026.3 hPa | 0 mm | - | - | - |
| 1777652116 | 22.78° C | 27% | 1026.9 hPa | 0 mm | - | - | - |
| 1777651516 | 22.78° C | 28% | 1027 hPa | 0 mm | - | - | - |
| 1777649136 | 22.78° C | 27% | 1027.1 hPa | 0 mm | - | - | - |
* Rain latest hour (hover to see other rain measurements)
** Current wind speed in m/s (hover to see current wind gust speed)